sensor_id;sensor_type;location;lat;lon;timestamp;pressure;altitude;pressure_sealevel;temperature;humidity
62634;BME280;48704;50.534;6.442;2023-07-24T00:00:43;94755.25;;;14.99;100.00
62634;BME280;48704;50.534;6.442;2023-07-24T00:03:09;94757.84;;;14.97;100.00
62634;BME280;48704;50.534;6.442;2023-07-24T00:05:34;94739.94;;;15.00;100.00
62634;BME280;48704;50.534;6.442;2023-07-24T00:07:59;94744.34;;;14.95;100.00
62634;BME280;48704;50.534;6.442;2023-07-24T00:10:25;94743.56;;;14.95;100.00
62634;BME280;48704;50.534;6.442;2023-07-24T00:12:50;94746.53;;;14.84;100.00
62634;BME280;48704;50.534;6.442;2023-07-24T00:15:15;94741.88;;;14.86;100.00
62634;BME280;48704;50.534;6.442;2023-07-24T00:17:41;94744.78;;;14.81;100.00
62634;BME280;48704;50.534;6.442;2023-07-24T00:20:06;94729.13;;;14.85;100.00
62634;BME280;48704;50.534;6.442;2023-07-24T00:22:32;94737.16;;;14.76;100.00
62634;BME280;48704;50.534;6.442;2023-07-24T00:24:57;94731.28;;;14.79;100.00
62634;BME280;48704;50.534;6.442;2023-07-24T00:27:22;94735.41;;;14.73;100.00
62634;BME280;48704;50.534;6.442;2023-07-24T00:29:47;94729.00;;;14.78;100.00
62634;BME280;48704;50.534;6.442;2023-07-24T00:32:13;94740.22;;;14.78;100.00
62634;BME280;48704;50.534;6.442;2023-07-24T00:34:38;94722.63;;;14.77;100.00
62634;BME280;48704;50.534;6.442;2023-07-24T00:37:04;94712.03;;;14.89;100.00
62634;BME280;48704;50.534;6.442;2023-07-24T00:39:29;94716.28;;;14.95;100.00
62634;BME280;48704;50.534;6.442;2023-07-24T00:41:54;94701.25;;;14.93;100.00
62634;BME280;48704;50.534;6.442;2023-07-24T00:44:20;94698.22;;;14.91;100.00
62634;BME280;48704;50.534;6.442;2023-07-24T00:46:45;94696.88;;;14.97;100.00
62634;BME280;48704;50.534;6.442;2023-07-24T00:49:11;94695.06;;;15.00;100.00
62634;BME280;48704;50.534;6.442;2023-07-24T00:51:36;94696.72;;;14.90;100.00
62634;BME280;48704;50.534;6.442;2023-07-24T00:54:02;94689.00;;;14.96;100.00
62634;BME280;48704;50.534;6.442;2023-07-24T00:56:28;94679.28;;;14.97;100.00
62634;BME280;48704;50.534;6.442;2023-07-24T00:58:55;94674.72;;;14.94;100.00
62634;BME280;48704;50.534;6.442;2023-07-24T01:01:24;94681.41;;;14.91;100.00
62634;BME280;48704;50.534;6.442;2023-07-24T01:03:51;94672.97;;;14.91;100.00
62634;BME280;48704;50.534;6.442;2023-07-24T01:06:16;94669.13;;;14.94;100.00
62634;BME280;48704;50.534;6.442;2023-07-24T01:08:42;94667.59;;;14.93;100.00
62634;BME280;48704;50.534;6.442;2023-07-24T01:11:15;94667.13;;;14.89;100.00
62634;BME280;48704;50.534;6.442;2023-07-24T01:13:46;94675.31;;;14.87;100.00
62634;BME280;48704;50.534;6.442;2023-07-24T01:16:14;94673.03;;;14.85;100.00
62634;BME280;48704;50.534;6.442;2023-07-24T01:18:44;94671.69;;;14.92;100.00
62634;BME280;48704;50.534;6.442;2023-07-24T01:21:11;94677.31;;;14.92;100.00
62634;BME280;48704;50.534;6.442;2023-07-24T01:23:59;94666.38;;;14.88;100.00
62634;BME280;48704;50.534;6.442;2023-07-24T01:26:28;94678.81;;;14.93;100.00
62634;BME280;48704;50.534;6.442;2023-07-24T01:28:53;94675.50;;;14.94;100.00
62634;BME280;48704;50.534;6.442;2023-07-24T01:31:18;94677.16;;;14.84;100.00
62634;BME280;48704;50.534;6.442;2023-07-24T01:33:44;94672.53;;;14.87;100.00
62634;BME280;48704;50.534;6.442;2023-07-24T01:36:10;94665.38;;;14.86;100.00
62634;BME280;48704;50.534;6.442;2023-07-24T01:38:37;94670.56;;;14.82;100.00
62634;BME280;48704;50.534;6.442;2023-07-24T01:41:03;94664.72;;;14.80;100.00
62634;BME280;48704;50.534;6.442;2023-07-24T01:43:29;94655.31;;;14.77;100.00
62634;BME280;48704;50.534;6.442;2023-07-24T01:45:55;94648.50;;;14.73;100.00
62634;BME280;48704;50.534;6.442;2023-07-24T01:48:20;94662.50;;;14.73;100.00
62634;BME280;48704;50.534;6.442;2023-07-24T01:50:45;94645.50;;;14.65;100.00
62634;BME280;48704;50.534;6.442;2023-07-24T01:53:11;94649.06;;;14.65;100.00
62634;BME280;48704;50.534;6.442;2023-07-24T01:55:36;94646.03;;;14.63;100.00
62634;BME280;48704;50.534;6.442;2023-07-24T01:58:01;94642.78;;;14.59;100.00
62634;BME280;48704;50.534;6.442;2023-07-24T02:00:27;94625.25;;;14.53;100.00
62634;BME280;48704;50.534;6.442;2023-07-24T02:02:52;94625.88;;;14.46;100.00
62634;BME280;48704;50.534;6.442;2023-07-24T02:05:17;94617.06;;;14.55;100.00
62634;BME280;48704;50.534;6.442;2023-07-24T02:07:43;94611.94;;;14.59;100.00
62634;BME280;48704;50.534;6.442;2023-07-24T02:10:08;94597.91;;;14.59;100.00
62634;BME280;48704;50.534;6.442;2023-07-24T02:12:34;94589.03;;;14.55;100.00
62634;BME280;48704;50.534;6.442;2023-07-24T02:14:59;94584.34;;;14.63;100.00
62634;BME280;48704;50.534;6.442;2023-07-24T02:17:24;94581.31;;;14.61;100.00
62634;BME280;48704;50.534;6.442;2023-07-24T02:19:50;94589.03;;;14.55;100.00
62634;BME280;48704;50.534;6.442;2023-07-24T02:22:15;94577.75;;;14.61;100.00
62634;BME280;48704;50.534;6.442;2023-07-24T02:24:41;94585.88;;;14.64;100.00
62634;BME280;48704;50.534;6.442;2023-07-24T02:27:06;94575.94;;;14.63;100.00
62634;BME280;48704;50.534;6.442;2023-07-24T02:29:31;94574.97;;;14.61;100.00
62634;BME280;48704;50.534;6.442;2023-07-24T02:31:58;94566.84;;;14.57;100.00
62634;BME280;48704;50.534;6.442;2023-07-24T02:34:23;94558.72;;;14.54;100.00
62634;BME280;48704;50.534;6.442;2023-07-24T02:36:52;94552.59;;;14.55;100.00
62634;BME280;48704;50.534;6.442;2023-07-24T02:39:17;94549.78;;;14.55;100.00
62634;BME280;48704;50.534;6.442;2023-07-24T02:41:42;94544.78;;;14.48;100.00
62634;BME280;48704;50.534;6.442;2023-07-24T02:44:07;94546.94;;;14.42;100.00
62634;BME280;48704;50.534;6.442;2023-07-24T02:46:33;94544.44;;;14.33;100.00
62634;BME280;48704;50.534;6.442;2023-07-24T02:48:58;94535.44;;;14.40;100.00
62634;BME280;48704;50.534;6.442;2023-07-24T02:51:23;94531.44;;;14.35;100.00
62634;BME280;48704;50.534;6.442;2023-07-24T02:53:49;94527.63;;;14.33;100.00
62634;BME280;48704;50.534;6.442;2023-07-24T02:56:14;94530.66;;;14.35;100.00
62634;BME280;48704;50.534;6.442;2023-07-24T02:58:39;94529.63;;;14.38;100.00
62634;BME280;48704;50.534;6.442;2023-07-24T03:01:05;94519.75;;;14.31;100.00
62634;BME280;48704;50.534;6.442;2023-07-24T03:03:32;94530.22;;;14.31;100.00
62634;BME280;48704;50.534;6.442;2023-07-24T03:05:57;94526.13;;;14.32;100.00
62634;BME280;48704;50.534;6.442;2023-07-24T03:08:23;94524.59;;;14.31;100.00
62634;BME280;48704;50.534;6.442;2023-07-24T03:10:48;94512.69;;;14.25;100.00
62634;BME280;48704;50.534;6.442;2023-07-24T03:13:13;94512.69;;;14.25;100.00
62634;BME280;48704;50.534;6.442;2023-07-24T03:15:39;94508.38;;;14.24;100.00
62634;BME280;48704;50.534;6.442;2023-07-24T03:18:04;94520.19;;;14.17;100.00
62634;BME280;48704;50.534;6.442;2023-07-24T03:20:29;94521.34;;;14.27;100.00
62634;BME280;48704;50.534;6.442;2023-07-24T03:22:54;94511.72;;;14.22;100.00
62634;BME280;48704;50.534;6.442;2023-07-24T03:25:20;94525.56;;;14.15;100.00
62634;BME280;48704;50.534;6.442;2023-07-24T03:27:45;94529.41;;;14.12;100.00
62634;BME280;48704;50.534;6.442;2023-07-24T03:30:10;94518.00;;;14.10;100.00
62634;BME280;48704;50.534;6.442;2023-07-24T03:32:37;94522.09;;;14.09;100.00
62634;BME280;48704;50.534;6.442;2023-07-24T03:35:03;94530.03;;;14.04;100.00
62634;BME280;48704;50.534;6.442;2023-07-24T03:37:29;94531.06;;;14.01;100.00
62634;BME280;48704;50.534;6.442;2023-07-24T03:39:54;94515.78;;;14.02;100.00
62634;BME280;48704;50.534;6.442;2023-07-24T03:42:31;94514.25;;;14.01;100.00
62634;BME280;48704;50.534;6.442;2023-07-24T03:44:57;94519.88;;;14.01;100.00
62634;BME280;48704;50.534;6.442;2023-07-24T03:47:23;94503.06;;;14.01;100.00
62634;BME280;48704;50.534;6.442;2023-07-24T03:49:50;94501.78;;;14.02;100.00
62634;BME280;48704;50.534;6.442;2023-07-24T03:52:15;94495.94;;;14.00;100.00
62634;BME280;48704;50.534;6.442;2023-07-24T03:54:41;94522.44;;;13.99;100.00
62634;BME280;48704;50.534;6.442;2023-07-24T03:57:06;94511.22;;;13.99;100.00
62634;BME280;48704;50.534;6.442;2023-07-24T03:59:31;94502.81;;;13.99;100.00
62634;BME280;48704;50.534;6.442;2023-07-24T04:01:57;94516.38;;;13.95;100.00
62634;BME280;48704;50.534;6.442;2023-07-24T04:04:23;94519.63;;;13.99;100.00
62634;BME280;48704;50.534;6.442;2023-07-24T04:06:48;94530.38;;;13.95;100.00
62634;BME280;48704;50.534;6.442;2023-07-24T04:09:13;94532.47;;;13.89;100.00
62634;BME280;48704;50.534;6.442;2023-07-24T04:11:42;94521.50;;;13.91;100.00
62634;BME280;48704;50.534;6.442;2023-07-24T04:14:08;94526.06;;;13.94;100.00
62634;BME280;48704;50.534;6.442;2023-07-24T04:16:33;94519.69;;;13.94;100.00
62634;BME280;48704;50.534;6.442;2023-07-24T04:18:58;94498.81;;;13.95;100.00
62634;BME280;48704;50.534;6.442;2023-07-24T04:21:24;94500.31;;;13.96;100.00
62634;BME280;48704;50.534;6.442;2023-07-24T04:23:49;94503.66;;;13.94;100.00
62634;BME280;48704;50.534;6.442;2023-07-24T04:26:14;94512.50;;;13.98;100.00
62634;BME280;48704;50.534;6.442;2023-07-24T04:28:39;94515.38;;;13.93;100.00
62634;BME280;48704;50.534;6.442;2023-07-24T04:31:05;94534.69;;;13.96;100.00
62634;BME280;48704;50.534;6.442;2023-07-24T04:33:30;94524.28;;;13.91;100.00
62634;BME280;48704;50.534;6.442;2023-07-24T04:35:55;94515.44;;;13.87;100.00
62634;BME280;48704;50.534;6.442;2023-07-24T04:38:21;94521.03;;;13.87;100.00
62634;BME280;48704;50.534;6.442;2023-07-24T04:40:46;94523.84;;;13.87;100.00
62634;BME280;48704;50.534;6.442;2023-07-24T04:43:12;94528.16;;;13.88;100.00
62634;BME280;48704;50.534;6.442;2023-07-24T04:45:37;94526.63;;;13.87;100.00
62634;BME280;48704;50.534;6.442;2023-07-24T04:48:03;94538.53;;;13.93;100.00
62634;BME280;48704;50.534;6.442;2023-07-24T04:50:28;94545.13;;;13.96;100.00
62634;BME280;48704;50.534;6.442;2023-07-24T04:52:54;94538.78;;;13.95;100.00
62634;BME280;48704;50.534;6.442;2023-07-24T04:55:19;94527.56;;;13.95;100.00
62634;BME280;48704;50.534;6.442;2023-07-24T04:57:46;94533.63;;;13.99;100.00
62634;BME280;48704;50.534;6.442;2023-07-24T05:00:11;94529.72;;;14.08;100.00
62634;BME280;48704;50.534;6.442;2023-07-24T05:02:36;94542.75;;;14.05;100.00
62634;BME280;48704;50.534;6.442;2023-07-24T05:05:02;94549.72;;;14.18;100.00
62634;BME280;48704;50.534;6.442;2023-07-24T05:07:27;94555.84;;;14.16;100.00
62634;BME280;48704;50.534;6.442;2023-07-24T05:09:52;94559.00;;;14.31;100.00
62634;BME280;48704;50.534;6.442;2023-07-24T05:12:18;94547.94;;;14.39;100.00
62634;BME280;48704;50.534;6.442;2023-07-24T05:14:43;94548.44;;;14.43;100.00
62634;BME280;48704;50.534;6.442;2023-07-24T05:17:08;94558.91;;;14.43;100.00
62634;BME280;48704;50.534;6.442;2023-07-24T05:19:33;94563.97;;;14.44;100.00
62634;BME280;48704;50.534;6.442;2023-07-24T05:21:59;94566.16;;;14.51;100.00
62634;BME280;48704;50.534;6.442;2023-07-24T05:24:24;94575.84;;;14.50;100.00
62634;BME280;48704;50.534;6.442;2023-07-24T05:26:49;94578.13;;;14.52;100.00
62634;BME280;48704;50.534;6.442;2023-07-24T05:29:15;94586.47;;;14.57;100.00
62634;BME280;48704;50.534;6.442;2023-07-24T05:31:40;94578.75;;;14.63;100.00
62634;BME280;48704;50.534;6.442;2023-07-24T05:34:05;94580.72;;;14.68;100.00
62634;BME280;48704;50.534;6.442;2023-07-24T05:36:30;94579.66;;;14.71;100.00
62634;BME280;48704;50.534;6.442;2023-07-24T05:38:56;94589.47;;;14.84;100.00
62634;BME280;48704;50.534;6.442;2023-07-24T05:41:22;94584.50;;;14.90;100.00
62634;BME280;48704;50.534;6.442;2023-07-24T05:43:48;94596.19;;;14.94;100.00
62634;BME280;48704;50.534;6.442;2023-07-24T05:46:13;94590.88;;;14.90;100.00
62634;BME280;48704;50.534;6.442;2023-07-24T05:48:38;94592.41;;;14.91;100.00
62634;BME280;48704;50.534;6.442;2023-07-24T05:51:03;94581.34;;;14.99;100.00
62634;BME280;48704;50.534;6.442;2023-07-24T05:53:29;94586.03;;;15.10;100.00
62634;BME280;48704;50.534;6.442;2023-07-24T05:55:58;94582.84;;;15.19;100.00
62634;BME280;48704;50.534;6.442;2023-07-24T05:58:25;94588.19;;;15.35;100.00
62634;BME280;48704;50.534;6.442;2023-07-24T06:00:50;94582.81;;;15.37;100.00
62634;BME280;48704;50.534;6.442;2023-07-24T06:03:15;94589.31;;;15.46;100.00
62634;BME280;48704;50.534;6.442;2023-07-24T06:05:40;94573.53;;;15.43;100.00
62634;BME280;48704;50.534;6.442;2023-07-24T06:08:06;94573.53;;;15.43;100.00
62634;BME280;48704;50.534;6.442;2023-07-24T06:10:33;94570.06;;;15.36;100.00
62634;BME280;48704;50.534;6.442;2023-07-24T06:12:58;94588.88;;;15.42;100.00
62634;BME280;48704;50.534;6.442;2023-07-24T06:15:24;94580.66;;;15.44;100.00
62634;BME280;48704;50.534;6.442;2023-07-24T06:17:49;94583.94;;;15.48;100.00
62634;BME280;48704;50.534;6.442;2023-07-24T06:20:14;94595.78;;;15.41;100.00
62634;BME280;48704;50.534;6.442;2023-07-24T06:22:39;94596.53;;;15.41;100.00
62634;BME280;48704;50.534;6.442;2023-07-24T06:25:05;94588.56;;;15.45;100.00
62634;BME280;48704;50.534;6.442;2023-07-24T06:27:30;94576.56;;;15.45;100.00
62634;BME280;48704;50.534;6.442;2023-07-24T06:29:56;94574.50;;;15.64;100.00
62634;BME280;48704;50.534;6.442;2023-07-24T06:32:21;94579.72;;;15.73;100.00
62634;BME280;48704;50.534;6.442;2023-07-24T06:34:46;94575.16;;;15.70;100.00
62634;BME280;48704;50.534;6.442;2023-07-24T06:37:11;94570.53;;;15.73;100.00
62634;BME280;48704;50.534;6.442;2023-07-24T06:39:36;94575.59;;;15.74;100.00
62634;BME280;48704;50.534;6.442;2023-07-24T06:42:02;94562.22;;;15.80;100.00
62634;BME280;48704;50.534;6.442;2023-07-24T06:44:27;94564.06;;;15.78;100.00
62634;BME280;48704;50.534;6.442;2023-07-24T06:46:53;94566.31;;;15.79;100.00
62634;BME280;48704;50.534;6.442;2023-07-24T06:49:18;94576.91;;;15.73;100.00
62634;BME280;48704;50.534;6.442;2023-07-24T06:51:43;94558.31;;;15.70;100.00
62634;BME280;48704;50.534;6.442;2023-07-24T06:54:08;94556.78;;;15.69;100.00
62634;BME280;48704;50.534;6.442;2023-07-24T06:56:34;94557.41;;;15.62;100.00
62634;BME280;48704;50.534;6.442;2023-07-24T06:58:59;94557.88;;;15.66;100.00
62634;BME280;48704;50.534;6.442;2023-07-24T07:01:24;94553.75;;;15.67;100.00
62634;BME280;48704;50.534;6.442;2023-07-24T07:03:50;94547.28;;;15.72;100.00
62634;BME280;48704;50.534;6.442;2023-07-24T07:06:15;94545.38;;;15.80;100.00
62634;BME280;48704;50.534;6.442;2023-07-24T07:08:40;94539.66;;;15.86;100.00
62634;BME280;48704;50.534;6.442;2023-07-24T07:11:06;94537.81;;;15.88;100.00
62634;BME280;48704;50.534;6.442;2023-07-24T07:13:31;94533.50;;;15.87;100.00
62634;BME280;48704;50.534;6.442;2023-07-24T07:15:56;94535.31;;;15.98;100.00
62634;BME280;48704;50.534;6.442;2023-07-24T07:18:22;94532.53;;;15.98;100.00
62634;BME280;48704;50.534;6.442;2023-07-24T07:20:48;94525.28;;;16.16;100.00
62634;BME280;48704;50.534;6.442;2023-07-24T07:23:14;94538.69;;;16.10;100.00
62634;BME280;48704;50.534;6.442;2023-07-24T07:25:39;94554.13;;;16.03;100.00
62634;BME280;48704;50.534;6.442;2023-07-24T07:28:05;94560.53;;;16.17;100.00
62634;BME280;48704;50.534;6.442;2023-07-24T07:30:30;94548.41;;;16.35;100.00
62634;BME280;48704;50.534;6.442;2023-07-24T07:32:55;94542.78;;;16.35;100.00
62634;BME280;48704;50.534;6.442;2023-07-24T07:35:20;94555.34;;;16.60;100.00
62634;BME280;48704;50.534;6.442;2023-07-24T07:37:46;94550.16;;;16.64;100.00
62634;BME280;48704;50.534;6.442;2023-07-24T07:40:11;94557.53;;;16.67;100.00
62634;BME280;48704;50.534;6.442;2023-07-24T07:42:36;94546.69;;;16.58;100.00
62634;BME280;48704;50.534;6.442;2023-07-24T07:45:02;94548.53;;;16.43;100.00
62634;BME280;48704;50.534;6.442;2023-07-24T07:47:27;94553.38;;;16.42;100.00
62634;BME280;48704;50.534;6.442;2023-07-24T07:49:53;94542.03;;;16.34;100.00
62634;BME280;48704;50.534;6.442;2023-07-24T07:52:18;94539.66;;;16.38;100.00
62634;BME280;48704;50.534;6.442;2023-07-24T07:54:46;94545.50;;;16.67;100.00
62634;BME280;48704;50.534;6.442;2023-07-24T07:57:12;94543.66;;;16.56;100.00
62634;BME280;48704;50.534;6.442;2023-07-24T07:59:37;94537.16;;;16.35;100.00
62634;BME280;48704;50.534;6.442;2023-07-24T08:02:02;94534.56;;;16.63;100.00
62634;BME280;48704;50.534;6.442;2023-07-24T08:04:28;94537.03;;;16.80;100.00
62634;BME280;48704;50.534;6.442;2023-07-24T08:06:53;94535.78;;;17.02;100.00
62634;BME280;48704;50.534;6.442;2023-07-24T08:09:18;94523.03;;;17.22;100.00
62634;BME280;48704;50.534;6.442;2023-07-24T08:11:44;94520.31;;;17.29;100.00
62634;BME280;48704;50.534;6.442;2023-07-24T08:14:09;94526.56;;;17.35;100.00
62634;BME280;48704;50.534;6.442;2023-07-24T08:16:34;94520.16;;;17.56;100.00
62634;BME280;48704;50.534;6.442;2023-07-24T08:18:59;94527.91;;;17.76;100.00
62634;BME280;48704;50.534;6.442;2023-07-24T08:21:25;94529.44;;;17.85;100.00
62634;BME280;48704;50.534;6.442;2023-07-24T08:23:50;94526.63;;;17.64;100.00
62634;BME280;48704;50.534;6.442;2023-07-24T08:26:15;94534.38;;;17.92;100.00
62634;BME280;48704;50.534;6.442;2023-07-24T08:28:40;94525.22;;;17.70;100.00
62634;BME280;48704;50.534;6.442;2023-07-24T08:31:08;94525.38;;;17.52;100.00
62634;BME280;48704;50.534;6.442;2023-07-24T08:33:33;94531.56;;;17.29;100.00
62634;BME280;48704;50.534;6.442;2023-07-24T08:36:02;94534.22;;;17.14;100.00
62634;BME280;48704;50.534;6.442;2023-07-24T08:38:27;94529.84;;;17.06;100.00
62634;BME280;48704;50.534;6.442;2023-07-24T08:41:10;94529.06;;;17.05;100.00
62634;BME280;48704;50.534;6.442;2023-07-24T08:43:38;94528.44;;;16.99;100.00
62634;BME280;48704;50.534;6.442;2023-07-24T08:46:05;94525.50;;;17.04;100.00
62634;BME280;48704;50.534;6.442;2023-07-24T08:48:35;94526.88;;;17.11;100.00
62634;BME280;48704;50.534;6.442;2023-07-24T08:51:05;94524.00;;;17.24;100.00
62634;BME280;48704;50.534;6.442;2023-07-24T08:53:41;94516.47;;;17.61;100.00
62634;BME280;48704;50.534;6.442;2023-07-24T08:56:10;94523.16;;;17.71;100.00
62634;BME280;48704;50.534;6.442;2023-07-24T08:58:36;94521.56;;;17.42;100.00
62634;BME280;48704;50.534;6.442;2023-07-24T09:01:03;94516.97;;;17.73;100.00
62634;BME280;48704;50.534;6.442;2023-07-24T09:03:30;94517.41;;;17.84;100.00
62634;BME280;48704;50.534;6.442;2023-07-24T09:05:55;94511.56;;;17.82;100.00
62634;BME280;48704;50.534;6.442;2023-07-24T09:08:35;94502.34;;;18.02;100.00
62634;BME280;48704;50.534;6.442;2023-07-24T09:11:03;94489.03;;;17.82;100.00
62634;BME280;48704;50.534;6.442;2023-07-24T09:13:30;94484.41;;;17.92;100.00
62634;BME280;48704;50.534;6.442;2023-07-24T09:15:55;94486.75;;;18.01;100.00
62634;BME280;48704;50.534;6.442;2023-07-24T09:18:21;94480.03;;;18.12;100.00
62634;BME280;48704;50.534;6.442;2023-07-24T09:20:47;94479.66;;;17.80;100.00
62634;BME280;48704;50.534;6.442;2023-07-24T09:23:14;94475.63;;;18.32;100.00
62634;BME280;48704;50.534;6.442;2023-07-24T09:25:41;94472.53;;;18.58;100.00
62634;BME280;48704;50.534;6.442;2023-07-24T09:28:14;94459.78;;;19.16;100.00
62634;BME280;48704;50.534;6.442;2023-07-24T09:30:41;94448.94;;;18.33;100.00
62634;BME280;48704;50.534;6.442;2023-07-24T09:33:07;94439.88;;;18.27;100.00
62634;BME280;48704;50.534;6.442;2023-07-24T09:35:33;94442.78;;;18.86;100.00
62634;BME280;48704;50.534;6.442;2023-07-24T09:38:06;94442.44;;;19.12;100.00
62634;BME280;48704;50.534;6.442;2023-07-24T09:40:43;94437.91;;;19.09;100.00
62634;BME280;48704;50.534;6.442;2023-07-24T09:43:21;94425.16;;;19.23;100.00
62634;BME280;48704;50.534;6.442;2023-07-24T09:45:48;94422.09;;;19.06;100.00
62634;BME280;48704;50.534;6.442;2023-07-24T09:48:15;94413.81;;;18.93;100.00
62634;BME280;48704;50.534;6.442;2023-07-24T09:50:48;94413.44;;;18.89;100.00
62634;BME280;48704;50.534;6.442;2023-07-24T09:53:18;94404.03;;;19.70;100.00
62634;BME280;48704;50.534;6.442;2023-07-24T09:55:58;94396.16;;;19.53;100.00
62634;BME280;48704;50.534;6.442;2023-07-24T09:58:25;94397.06;;;19.10;100.00
62634;BME280;48704;50.534;6.442;2023-07-24T10:00:51;94400.63;;;19.03;100.00
62634;BME280;48704;50.534;6.442;2023-07-24T10:03:17;94393.47;;;18.87;100.00
62634;BME280;48704;50.534;6.442;2023-07-24T10:05:47;94400.78;;;18.75;100.00
62634;BME280;48704;50.534;6.442;2023-07-24T10:08:15;94395.34;;;18.99;100.00
62634;BME280;48704;50.534;6.442;2023-07-24T10:10:41;94399.53;;;19.21;100.00
62634;BME280;48704;50.534;6.442;2023-07-24T10:13:08;94398.03;;;19.20;100.00
62634;BME280;48704;50.534;6.442;2023-07-24T10:15:36;94394.66;;;19.29;100.00
62634;BME280;48704;50.534;6.442;2023-07-24T10:18:03;94403.94;;;18.63;100.00
62634;BME280;48704;50.534;6.442;2023-07-24T10:20:34;94405.59;;;18.51;100.00
62634;BME280;48704;50.534;6.442;2023-07-24T10:23:01;94408.03;;;18.47;100.00
62634;BME280;48704;50.534;6.442;2023-07-24T10:25:34;94411.31;;;18.30;100.00
62634;BME280;48704;50.534;6.442;2023-07-24T10:28:04;94412.53;;;18.50;100.00
62634;BME280;48704;50.534;6.442;2023-07-24T10:30:33;94402.69;;;18.36;100.00
62634;BME280;48704;50.534;6.442;2023-07-24T10:33:20;94403.94;;;18.63;100.00
62634;BME280;48704;50.534;6.442;2023-07-24T10:35:47;94405.78;;;18.53;100.00
62634;BME280;48704;50.534;6.442;2023-07-24T10:38:14;94416.91;;;18.15;100.00
62634;BME280;48704;50.534;6.442;2023-07-24T10:40:41;94419.78;;;17.37;100.00
62634;BME280;48704;50.534;6.442;2023-07-24T10:43:11;94424.75;;;17.03;100.00
62634;BME280;48704;50.534;6.442;2023-07-24T10:45:42;94428.09;;;17.22;100.00
62634;BME280;48704;50.534;6.442;2023-07-24T10:48:08;94422.63;;;17.66;100.00
62634;BME280;48704;50.534;6.442;2023-07-24T10:50:38;94421.34;;;18.03;100.00
62634;BME280;48704;50.534;6.442;2023-07-24T10:53:03;94412.94;;;18.54;100.00
62634;BME280;48704;50.534;6.442;2023-07-24T10:55:28;94413.47;;;18.45;100.00
62634;BME280;48704;50.534;6.442;2023-07-24T10:57:53;94394.31;;;18.08;100.00
62634;BME280;48704;50.534;6.442;2023-07-24T11:00:19;94392.34;;;18.90;100.00
62634;BME280;48704;50.534;6.442;2023-07-24T11:02:44;94384.09;;;19.53;100.00
62634;BME280;48704;50.534;6.442;2023-07-24T11:05:09;94380.69;;;19.69;100.00
62634;BME280;48704;50.534;6.442;2023-07-24T11:07:35;94383.66;;;20.02;100.00
62634;BME280;48704;50.534;6.442;2023-07-24T11:10:00;94396.94;;;20.32;100.00
62634;BME280;48704;50.534;6.442;2023-07-24T11:12:26;94373.34;;;20.37;100.00
62634;BME280;48704;50.534;6.442;2023-07-24T11:14:55;94403.84;;;20.46;100.00
62634;BME280;48704;50.534;6.442;2023-07-24T11:17:21;94393.31;;;19.68;100.00
62634;BME280;48704;50.534;6.442;2023-07-24T11:19:47;94392.69;;;18.71;100.00
62634;BME280;48704;50.534;6.442;2023-07-24T11:22:12;94397.88;;;18.59;100.00
62634;BME280;48704;50.534;6.442;2023-07-24T11:24:45;94409.97;;;18.24;100.00
62634;BME280;48704;50.534;6.442;2023-07-24T11:27:15;94402.88;;;17.94;100.00
62634;BME280;48704;50.534;6.442;2023-07-24T11:29:47;94410.25;;;17.69;100.00
62634;BME280;48704;50.534;6.442;2023-07-24T11:32:17;94416.53;;;16.71;100.00
62634;BME280;48704;50.534;6.442;2023-07-24T11:34:43;94426.38;;;16.30;100.00
62634;BME280;48704;50.534;6.442;2023-07-24T11:37:08;94431.59;;;16.13;100.00
62634;BME280;48704;50.534;6.442;2023-07-24T11:39:34;94426.31;;;15.96;100.00
62634;BME280;48704;50.534;6.442;2023-07-24T11:42:00;94418.19;;;16.53;100.00
62634;BME280;48704;50.534;6.442;2023-07-24T11:44:28;94410.66;;;17.03;100.00
62634;BME280;48704;50.534;6.442;2023-07-24T11:47:04;94411.84;;;17.85;100.00
62634;BME280;48704;50.534;6.442;2023-07-24T11:49:30;94413.25;;;18.43;100.00
62634;BME280;48704;50.534;6.442;2023-07-24T11:52:04;94406.28;;;18.36;100.00
62634;BME280;48704;50.534;6.442;2023-07-24T11:54:30;94402.19;;;18.01;100.00
62634;BME280;48704;50.534;6.442;2023-07-24T11:56:55;94400.50;;;18.57;100.00
62634;BME280;48704;50.534;6.442;2023-07-24T11:59:20;94398.00;;;19.05;100.00
62634;BME280;48704;50.534;6.442;2023-07-24T12:01:47;94388.22;;;18.91;100.00
62634;BME280;48704;50.534;6.442;2023-07-24T12:04:16;94381.09;;;19.20;100.00
62634;BME280;48704;50.534;6.442;2023-07-24T12:06:41;94393.50;;;19.32;100.00
62634;BME280;48704;50.534;6.442;2023-07-24T12:09:07;94387.47;;;19.13;100.00
62634;BME280;48704;50.534;6.442;2023-07-24T12:11:33;94388.56;;;19.86;100.00
62634;BME280;48704;50.534;6.442;2023-07-24T12:13:59;94375.75;;;19.85;100.00
62634;BME280;48704;50.534;6.442;2023-07-24T12:16:24;94394.13;;;20.17;100.00
62634;BME280;48704;50.534;6.442;2023-07-24T12:18:49;94386.22;;;20.23;100.00
62634;BME280;48704;50.534;6.442;2023-07-24T12:21:15;94397.16;;;20.19;100.00
62634;BME280;48704;50.534;6.442;2023-07-24T12:23:40;94387.72;;;20.24;100.00
62634;BME280;48704;50.534;6.442;2023-07-24T12:26:05;94379.97;;;20.24;100.00
62634;BME280;48704;50.534;6.442;2023-07-24T12:28:30;94379.19;;;20.79;100.00
62634;BME280;48704;50.534;6.442;2023-07-24T12:30:56;94369.66;;;20.12;100.00
62634;BME280;48704;50.534;6.442;2023-07-24T12:33:21;94375.19;;;20.42;100.00
62634;BME280;48704;50.534;6.442;2023-07-24T12:35:52;94374.88;;;20.71;100.00
62634;BME280;48704;50.534;6.442;2023-07-24T12:38:20;94376.81;;;20.93;100.00
62634;BME280;48704;50.534;6.442;2023-07-24T12:40:45;94374.28;;;20.40;100.00
62634;BME280;48704;50.534;6.442;2023-07-24T12:43:10;94360.63;;;20.86;100.00
62634;BME280;48704;50.534;6.442;2023-07-24T12:45:36;94365.34;;;21.16;100.00